sensor_id;sensor_type;location;lat;lon;timestamp;pressure;altitude;pressure_sealevel;temperature;humidity
14612;BME280;7392;52.078;11.650;2023-04-25T00:00:26;99938.28;;;5.40;100.00
14612;BME280;7392;52.078;11.650;2023-04-25T00:03:01;99941.75;;;5.38;100.00
14612;BME280;7392;52.078;11.650;2023-04-25T00:05:39;99932.09;;;5.37;100.00
14612;BME280;7392;52.078;11.650;2023-04-25T00:08:08;99941.78;;;5.36;100.00
14612;BME280;7392;52.078;11.650;2023-04-25T00:10:42;99943.50;;;5.36;100.00
14612;BME280;7392;52.078;11.650;2023-04-25T00:13:12;99937.34;;;5.35;100.00
14612;BME280;7392;52.078;11.650;2023-04-25T00:15:41;99942.63;;;5.35;100.00
14612;BME280;7392;52.078;11.650;2023-04-25T00:18:09;99945.28;;;5.37;100.00
14612;BME280;7392;52.078;11.650;2023-04-25T00:20:37;99936.50;;;5.39;100.00
14612;BME280;7392;52.078;11.650;2023-04-25T00:23:05;99948.78;;;5.39;100.00
14612;BME280;7392;52.078;11.650;2023-04-25T00:25:33;99941.75;;;5.38;100.00
14612;BME280;7392;52.078;11.650;2023-04-25T00:28:01;99942.63;;;5.37;100.00
14612;BME280;7392;52.078;11.650;2023-04-25T00:30:29;99937.41;;;5.40;100.00
14612;BME280;7392;52.078;11.650;2023-04-25T00:32:58;99938.28;;;5.40;100.00
14612;BME280;7392;52.078;11.650;2023-04-25T00:35:25;99943.56;;;5.42;100.00
14612;BME280;7392;52.078;11.650;2023-04-25T00:37:54;99946.22;;;5.45;100.00
14612;BME280;7392;52.078;11.650;2023-04-25T00:40:22;99940.94;;;5.48;100.00
14612;BME280;7392;52.078;11.650;2023-04-25T00:42:51;99941.84;;;5.52;100.00
14612;BME280;7392;52.078;11.650;2023-04-25T00:45:19;99947.13;;;5.55;100.00
14612;BME280;7392;52.078;11.650;2023-04-25T00:47:48;99942.75;;;5.58;100.00
14612;BME280;7392;52.078;11.650;2023-04-25T00:50:20;99941.03;;;5.62;100.00
14612;BME280;7392;52.078;11.650;2023-04-25T00:52:47;99940.16;;;5.66;100.00
14612;BME280;7392;52.078;11.650;2023-04-25T00:55:15;99936.66;;;5.70;100.00
14612;BME280;7392;52.078;11.650;2023-04-25T00:57:44;99944.59;;;5.75;100.00
14612;BME280;7392;52.078;11.650;2023-04-25T01:00:14;99955.16;;;5.78;100.00
14612;BME280;7392;52.078;11.650;2023-04-25T01:02:43;99949.91;;;5.81;100.00
14612;BME280;7392;52.078;11.650;2023-04-25T01:05:11;99940.25;;;5.83;100.00
14612;BME280;7392;52.078;11.650;2023-04-25T01:07:43;99942.00;;;5.84;100.00
14612;BME280;7392;52.078;11.650;2023-04-25T01:10:12;99940.25;;;5.85;100.00
14612;BME280;7392;52.078;11.650;2023-04-25T01:12:40;99943.78;;;5.88;100.00
14612;BME280;7392;52.078;11.650;2023-04-25T01:15:08;99936.75;;;5.90;100.00
14612;BME280;7392;52.078;11.650;2023-04-25T01:17:36;99942.91;;;5.91;100.00
14612;BME280;7392;52.078;11.650;2023-04-25T01:20:07;99939.41;;;5.92;100.00
14612;BME280;7392;52.078;11.650;2023-04-25T01:22:37;99940.28;;;5.94;100.00
14612;BME280;7392;52.078;11.650;2023-04-25T01:25:07;99935.91;;;5.94;100.00
14612;BME280;7392;52.078;11.650;2023-04-25T01:27:35;99941.19;;;5.96;100.00
14612;BME280;7392;52.078;11.650;2023-04-25T01:30:04;99943.84;;;5.96;100.00
14612;BME280;7392;52.078;11.650;2023-04-25T01:32:33;99949.13;;;5.97;100.00
14612;BME280;7392;52.078;11.650;2023-04-25T01:35:05;99943.84;;;5.97;100.00
14612;BME280;7392;52.078;11.650;2023-04-25T01:37:37;99945.59;;;5.97;100.00
14612;BME280;7392;52.078;11.650;2023-04-25T01:40:06;99935.94;;;5.99;100.00
14612;BME280;7392;52.078;11.650;2023-04-25T01:42:35;99947.38;;;6.01;100.00
14612;BME280;7392;52.078;11.650;2023-04-25T01:45:04;99943.84;;;6.01;100.00
14612;BME280;7392;52.078;11.650;2023-04-25T01:47:38;99948.28;;;6.02;100.00
14612;BME280;7392;52.078;11.650;2023-04-25T01:50:09;99941.22;;;6.02;100.00
14612;BME280;7392;52.078;11.650;2023-04-25T01:52:41;99946.50;;;6.02;100.00
14612;BME280;7392;52.078;11.650;2023-04-25T01:55:14;99952.63;;;6.01;100.00
14612;BME280;7392;52.078;11.650;2023-04-25T01:57:59;99948.25;;;6.00;100.00
14612;BME280;7392;52.078;11.650;2023-04-25T02:00:52;99950.88;;;5.98;100.00
14612;BME280;7392;52.078;11.650;2023-04-25T02:03:22;99951.75;;;5.99;100.00
14612;BME280;7392;52.078;11.650;2023-04-25T02:05:50;99950.03;;;5.98;100.00
14612;BME280;7392;52.078;11.650;2023-04-25T02:08:20;99944.75;;;5.99;100.00
14612;BME280;7392;52.078;11.650;2023-04-25T02:10:48;99954.41;;;5.99;100.00
14612;BME280;7392;52.078;11.650;2023-04-25T02:13:19;99957.94;;;5.99;100.00
14612;BME280;7392;52.078;11.650;2023-04-25T02:16:03;99943.84;;;5.99;100.00
14612;BME280;7392;52.078;11.650;2023-04-25T02:18:31;99950.03;;;5.99;100.00
14612;BME280;7392;52.078;11.650;2023-04-25T02:20:59;99957.91;;;6.01;100.00
14612;BME280;7392;52.078;11.650;2023-04-25T02:23:29;99954.44;;;6.04;100.00
14612;BME280;7392;52.078;11.650;2023-04-25T02:25:59;99945.66;;;6.03;100.00
14612;BME280;7392;52.078;11.650;2023-04-25T02:28:27;99943.00;;;6.03;100.00
14612;BME280;7392;52.078;11.650;2023-04-25T02:30:54;99949.13;;;6.01;100.00
14612;BME280;7392;52.078;11.650;2023-04-25T02:33:23;99947.38;;;6.03;100.00
14612;BME280;7392;52.078;11.650;2023-04-25T02:35:51;99947.38;;;6.03;100.00
14612;BME280;7392;52.078;11.650;2023-04-25T02:38:21;99944.72;;;6.01;100.00
14612;BME280;7392;52.078;11.650;2023-04-25T02:40:50;99955.28;;;6.01;100.00
14612;BME280;7392;52.078;11.650;2023-04-25T02:43:17;99953.53;;;6.02;100.00
14612;BME280;7392;52.078;11.650;2023-04-25T02:45:45;99957.91;;;6.03;100.00
14612;BME280;7392;52.078;11.650;2023-04-25T02:48:13;99951.78;;;6.02;100.00
14612;BME280;7392;52.078;11.650;2023-04-25T02:50:41;99955.28;;;6.03;100.00
14612;BME280;7392;52.078;11.650;2023-04-25T02:53:09;99960.56;;;6.03;100.00
14612;BME280;7392;52.078;11.650;2023-04-25T03:02:46;99949.13;;;6.01;100.00
14612;BME280;7392;52.078;11.650;2023-04-25T03:05:14;99943.84;;;5.99;100.00
14612;BME280;7392;52.078;11.650;2023-04-25T03:07:43;99948.25;;;5.97;100.00
14612;BME280;7392;52.078;11.650;2023-04-25T03:10:12;99947.31;;;5.93;100.00
14612;BME280;7392;52.078;11.650;2023-04-25T03:12:40;99944.69;;;5.92;100.00
14612;BME280;7392;52.078;11.650;2023-04-25T03:15:09;99940.25;;;5.89;100.00
14612;BME280;7392;52.078;11.650;2023-04-25T03:17:37;99943.78;;;5.87;100.00
14612;BME280;7392;52.078;11.650;2023-04-25T03:20:08;99941.09;;;5.82;100.00
14612;BME280;7392;52.078;11.650;2023-04-25T03:22:36;99948.09;;;5.75;100.00
14612;BME280;7392;52.078;11.650;2023-04-25T03:25:05;99945.47;;;5.69;100.00
14612;BME280;7392;52.078;11.650;2023-04-25T03:27:34;99950.69;;;5.65;100.00
14612;BME280;7392;52.078;11.650;2023-04-25T03:32:55;99955.91;;;5.54;100.00
14612;BME280;7392;52.078;11.650;2023-04-25T03:35:25;99955.00;;;5.53;100.00
14612;BME280;7392;52.078;11.650;2023-04-25T03:37:53;99955.91;;;5.52;100.00
14612;BME280;7392;52.078;11.650;2023-04-25T03:40:27;99963.78;;;5.49;100.00
14612;BME280;7392;52.078;11.650;2023-04-25T03:43:07;99968.19;;;5.52;100.00
14612;BME280;7392;52.078;11.650;2023-04-25T03:45:37;99962.03;;;5.51;100.00
14612;BME280;7392;52.078;11.650;2023-04-25T03:48:04;99964.66;;;5.51;100.00
14612;BME280;7392;52.078;11.650;2023-04-25T03:50:34;99965.56;;;5.52;100.00
14612;BME280;7392;52.078;11.650;2023-04-25T03:53:02;99966.44;;;5.52;100.00
14612;BME280;7392;52.078;11.650;2023-04-25T03:55:42;99966.44;;;5.52;100.00
14612;BME280;7392;52.078;11.650;2023-04-25T03:58:09;99970.84;;;5.52;100.00
14612;BME280;7392;52.078;11.650;2023-04-25T04:06:16;99970.81;;;5.53;100.00
14612;BME280;7392;52.078;11.650;2023-04-25T04:08:49;99977.00;;;5.54;100.00
14612;BME280;7392;52.078;11.650;2023-04-25T04:11:16;99974.38;;;5.57;100.00
14612;BME280;7392;52.078;11.650;2023-04-25T04:13:44;99969.09;;;5.58;100.00
14612;BME280;7392;52.078;11.650;2023-04-25T04:16:12;99967.38;;;5.60;100.00
14612;BME280;7392;52.078;11.650;2023-04-25T04:18:40;99975.28;;;5.62;100.00
14612;BME280;7392;52.078;11.650;2023-04-25T04:21:08;99972.63;;;5.60;100.00
14612;BME280;7392;52.078;11.650;2023-04-25T04:23:40;99974.38;;;5.61;100.00
14612;BME280;7392;52.078;11.650;2023-04-25T04:26:09;99977.03;;;5.61;100.00
14612;BME280;7392;52.078;11.650;2023-04-25T04:29:04;99975.25;;;5.63;100.00
14612;BME280;7392;52.078;11.650;2023-04-25T04:31:48;99988.47;;;5.67;100.00
14612;BME280;7392;52.078;11.650;2023-04-25T04:34:17;99994.63;;;5.69;100.00
14612;BME280;7392;52.078;11.650;2023-04-25T04:36:45;99995.53;;;5.71;100.00
14612;BME280;7392;52.078;11.650;2023-04-25T04:39:15;99992.91;;;5.75;100.00
14612;BME280;7392;52.078;11.650;2023-04-25T04:47:39;100003.50;;;5.85;100.00
14612;BME280;7392;52.078;11.650;2023-04-25T04:50:17;99996.50;;;5.88;100.00
14612;BME280;7392;52.078;11.650;2023-04-25T04:53:04;100001.81;;;5.93;100.00
14612;BME280;7392;52.078;11.650;2023-04-25T04:55:47;99999.19;;;5.94;100.00
14612;BME280;7392;52.078;11.650;2023-04-25T04:58:36;99998.31;;;5.97;100.00
14612;BME280;7392;52.078;11.650;2023-04-25T05:01:30;100004.47;;;5.99;100.00
14612;BME280;7392;52.078;11.650;2023-04-25T05:04:16;99999.22;;;6.02;100.00
14612;BME280;7392;52.078;11.650;2023-04-25T05:06:44;100012.41;;;6.04;100.00
14612;BME280;7392;52.078;11.650;2023-04-25T05:09:34;100009.81;;;6.07;100.00
14612;BME280;7392;52.078;11.650;2023-04-25T05:12:08;100010.69;;;6.10;100.00
14612;BME280;7392;52.078;11.650;2023-04-25T05:14:58;100011.59;;;6.14;100.00
14612;BME280;7392;52.078;11.650;2023-04-25T05:17:30;100009.84;;;6.16;100.00
14612;BME280;7392;52.078;11.650;2023-04-25T05:20:18;100022.16;;;6.18;100.00
14612;BME280;7392;52.078;11.650;2023-04-25T05:23:04;100021.28;;;6.21;100.00
14612;BME280;7392;52.078;11.650;2023-04-25T05:25:44;100023.94;;;6.23;100.00
14612;BME280;7392;52.078;11.650;2023-04-25T05:28:22;100023.94;;;6.24;100.00
14612;BME280;7392;52.078;11.650;2023-04-25T05:31:09;100019.53;;;6.23;100.00
14612;BME280;7392;52.078;11.650;2023-04-25T05:33:45;100030.09;;;6.25;100.00
14612;BME280;7392;52.078;11.650;2023-04-25T05:36:13;100035.34;;;6.25;100.00
14612;BME280;7392;52.078;11.650;2023-04-25T05:38:41;100033.59;;;6.27;100.00
14612;BME280;7392;52.078;11.650;2023-04-25T05:41:09;100030.97;;;6.27;100.00
14612;BME280;7392;52.078;11.650;2023-04-25T05:44:16;100038.88;;;6.28;100.00
14612;BME280;7392;52.078;11.650;2023-04-25T05:46:54;100044.16;;;6.28;100.00
14612;BME280;7392;52.078;11.650;2023-04-25T05:49:38;100047.69;;;6.29;100.00
14612;BME280;7392;52.078;11.650;2023-04-25T05:52:29;100054.72;;;6.31;100.00
14612;BME280;7392;52.078;11.650;2023-04-25T05:55:21;100054.72;;;6.31;100.00
14612;BME280;7392;52.078;11.650;2023-04-25T05:57:49;100055.59;;;6.33;100.00
14612;BME280;7392;52.078;11.650;2023-04-25T06:00:18;100060.03;;;6.36;100.00
14612;BME280;7392;52.078;11.650;2023-04-25T06:02:49;100063.53;;;6.36;100.00
14612;BME280;7392;52.078;11.650;2023-04-25T06:05:18;100067.97;;;6.39;100.00
14612;BME280;7392;52.078;11.650;2023-04-25T06:07:46;100081.16;;;6.41;100.00
14612;BME280;7392;52.078;11.650;2023-04-25T06:10:14;100068.84;;;6.43;100.00
14612;BME280;7392;52.078;11.650;2023-04-25T06:12:42;100076.75;;;6.47;100.00
14612;BME280;7392;52.078;11.650;2023-04-25T06:15:11;100086.47;;;6.50;100.00
14612;BME280;7392;52.078;11.650;2023-04-25T06:17:54;100082.94;;;6.52;100.00
14612;BME280;7392;52.078;11.650;2023-04-25T06:20:22;100087.34;;;6.53;100.00
14612;BME280;7392;52.078;11.650;2023-04-25T06:22:53;100092.63;;;6.55;100.00
14612;BME280;7392;52.078;11.650;2023-04-25T06:25:29;100097.91;;;6.55;100.00
14612;BME280;7392;52.078;11.650;2023-04-25T06:27:56;100097.94;;;6.57;100.00
14612;BME280;7392;52.078;11.650;2023-04-25T06:30:25;100096.16;;;6.59;100.00
14612;BME280;7392;52.078;11.650;2023-04-25T06:32:59;100110.25;;;6.62;100.00
14612;BME280;7392;52.078;11.650;2023-04-25T06:35:28;100104.97;;;6.61;100.00
14612;BME280;7392;52.078;11.650;2023-04-25T06:37:56;100113.78;;;6.60;100.00
14612;BME280;7392;52.078;11.650;2023-04-25T06:40:25;100111.13;;;6.60;100.00
14612;BME280;7392;52.078;11.650;2023-04-25T06:42:53;100106.75;;;6.62;100.00
14612;BME280;7392;52.078;11.650;2023-04-25T06:45:45;100116.41;;;6.64;100.00
14612;BME280;7392;52.078;11.650;2023-04-25T06:48:15;100112.03;;;6.69;99.85
14612;BME280;7392;52.078;11.650;2023-04-25T06:50:43;100120.84;;;6.76;100.00
14612;BME280;7392;52.078;11.650;2023-04-25T06:53:11;100112.97;;;6.84;100.00
14612;BME280;7392;52.078;11.650;2023-04-25T06:55:42;100112.97;;;6.90;100.00
14612;BME280;7392;52.078;11.650;2023-04-25T06:58:32;100115.69;;;7.02;100.00
14612;BME280;7392;52.078;11.650;2023-04-25T07:01:09;100111.28;;;7.07;98.92
14612;BME280;7392;52.078;11.650;2023-04-25T07:03:38;100116.56;;;7.14;98.65
14612;BME280;7392;52.078;11.650;2023-04-25T07:06:12;100130.66;;;7.17;97.44
14612;BME280;7392;52.078;11.650;2023-04-25T07:08:40;100124.50;;;7.17;96.17
14612;BME280;7392;52.078;11.650;2023-04-25T07:11:08;100132.44;;;7.20;97.01
14612;BME280;7392;52.078;11.650;2023-04-25T07:13:36;100125.38;;;7.19;95.63
14612;BME280;7392;52.078;11.650;2023-04-25T07:16:04;100136.81;;;7.16;94.38
14612;BME280;7392;52.078;11.650;2023-04-25T07:18:34;100133.28;;;7.16;94.33
14612;BME280;7392;52.078;11.650;2023-04-25T07:21:04;100131.53;;;7.15;93.67
14612;BME280;7392;52.078;11.650;2023-04-25T07:23:33;100132.41;;;7.18;94.13
14612;BME280;7392;52.078;11.650;2023-04-25T07:26:07;100122.75;;;7.26;94.42
14612;BME280;7392;52.078;11.650;2023-04-25T07:28:41;100132.47;;;7.37;94.83
14612;BME280;7392;52.078;11.650;2023-04-25T07:31:11;100133.34;;;7.42;92.63
14612;BME280;7392;52.078;11.650;2023-04-25T07:33:39;100137.72;;;7.44;90.58
14612;BME280;7392;52.078;11.650;2023-04-25T07:36:08;100129.84;;;7.55;90.96
14612;BME280;7392;52.078;11.650;2023-04-25T07:38:36;100135.09;;;7.63;89.85
14612;BME280;7392;52.078;11.650;2023-04-25T07:41:05;100135.97;;;7.63;87.00
14612;BME280;7392;52.078;11.650;2023-04-25T07:43:33;100134.25;;;7.64;84.87
14612;BME280;7392;52.078;11.650;2023-04-25T07:46:02;100136.88;;;7.73;84.99
14612;BME280;7392;52.078;11.650;2023-04-25T07:48:35;100142.16;;;7.79;82.90
14612;BME280;7392;52.078;11.650;2023-04-25T07:51:04;100139.50;;;7.90;83.16
14612;BME280;7392;52.078;11.650;2023-04-25T07:53:34;100148.31;;;7.98;82.82
14612;BME280;7392;52.078;11.650;2023-04-25T07:56:09;100149.19;;;7.99;81.03
14612;BME280;7392;52.078;11.650;2023-04-25T07:58:39;100151.84;;;8.00;80.31
14612;BME280;7392;52.078;11.650;2023-04-25T08:01:09;100165.03;;;8.13;80.47
14612;BME280;7392;52.078;11.650;2023-04-25T08:03:45;100150.91;;;8.31;81.28
14612;BME280;7392;52.078;11.650;2023-04-25T08:06:31;100159.72;;;8.50;81.47
14612;BME280;7392;52.078;11.650;2023-04-25T08:09:07;100161.44;;;8.66;81.21
14612;BME280;7392;52.078;11.650;2023-04-25T08:11:41;100154.28;;;8.85;81.49
14612;BME280;7392;52.078;11.650;2023-04-25T08:14:11;100163.06;;;8.98;80.63
14612;BME280;7392;52.078;11.650;2023-04-25T08:16:41;100162.97;;;9.13;77.88
14612;BME280;7392;52.078;11.650;2023-04-25T08:19:12;100170.88;;;9.24;74.84
14612;BME280;7392;52.078;11.650;2023-04-25T08:21:39;100174.38;;;9.29;72.50
14612;BME280;7392;52.078;11.650;2023-04-25T08:24:13;100179.59;;;9.42;72.02
14612;BME280;7392;52.078;11.650;2023-04-25T08:26:42;100183.03;;;9.56;72.05
14612;BME280;7392;52.078;11.650;2023-04-25T08:29:14;100185.66;;;9.61;70.94
14612;BME280;7392;52.078;11.650;2023-04-25T08:31:43;100189.06;;;9.77;70.78
14612;BME280;7392;52.078;11.650;2023-04-25T08:34:12;100189.03;;;9.83;68.64
14612;BME280;7392;52.078;11.650;2023-04-25T08:36:47;100194.31;;;9.84;67.73
14612;BME280;7392;52.078;11.650;2023-04-25T08:39:37;100195.22;;;9.80;66.08
14612;BME280;7392;52.078;11.650;2023-04-25T08:42:21;100193.41;;;9.85;67.66
14612;BME280;7392;52.078;11.650;2023-04-25T08:44:49;100192.50;;;9.89;67.21
14612;BME280;7392;52.078;11.650;2023-04-25T08:47:19;100198.78;;;9.81;65.66
14612;BME280;7392;52.078;11.650;2023-04-25T08:49:56;100196.19;;;9.70;65.88
14612;BME280;7392;52.078;11.650;2023-04-25T08:52:24;100197.13;;;9.64;65.82
14612;BME280;7392;52.078;11.650;2023-04-25T08:54:57;100211.13;;;9.80;66.50
14612;BME280;7392;52.078;11.650;2023-04-25T08:57:27;100211.81;;;10.07;66.43
14612;BME280;7392;52.078;11.650;2023-04-25T08:59:57;100209.88;;;10.27;65.17
14612;BME280;7392;52.078;11.650;2023-04-25T09:02:27;100215.00;;;10.49;65.19
14612;BME280;7392;52.078;11.650;2023-04-25T09:04:55;100215.66;;;10.73;64.74
14612;BME280;7392;52.078;11.650;2023-04-25T09:07:25;100213.75;;;10.81;64.31
14612;BME280;7392;52.078;11.650;2023-04-25T09:09:53;100220.03;;;10.74;63.51
14612;BME280;7392;52.078;11.650;2023-04-25T09:12:26;100228.94;;;10.71;63.16
14612;BME280;7392;52.078;11.650;2023-04-25T09:15:02;100230.66;;;10.74;61.64
14612;BME280;7392;52.078;11.650;2023-04-25T09:18:00;100221.78;;;10.78;61.86
14612;BME280;7392;52.078;11.650;2023-04-25T09:20:41;100227.03;;;10.81;61.39
14612;BME280;7392;52.078;11.650;2023-04-25T09:23:26;100235.97;;;10.74;60.15
14612;BME280;7392;52.078;11.650;2023-04-25T09:25:54;100236.91;;;10.73;60.79
14612;BME280;7392;52.078;11.650;2023-04-25T09:28:26;100237.78;;;10.72;59.87
14612;BME280;7392;52.078;11.650;2023-04-25T09:30:58;100253.44;;;10.95;60.29
14612;BME280;7392;52.078;11.650;2023-04-25T09:33:33;100240.81;;;11.15;60.69
14612;BME280;7392;52.078;11.650;2023-04-25T09:36:05;100258.34;;;11.30;59.10
14612;BME280;7392;52.078;11.650;2023-04-25T09:38:51;100259.34;;;11.21;56.31
14612;BME280;7392;52.078;11.650;2023-04-25T09:41:27;100266.59;;;11.09;54.45
14612;BME280;7392;52.078;11.650;2023-04-25T09:44:00;100276.34;;;11.05;55.41
14612;BME280;7392;52.078;11.650;2023-04-25T09:46:35;100276.28;;;11.13;55.20
14612;BME280;7392;52.078;11.650;2023-04-25T09:49:14;100275.34;;;11.15;54.50
14612;BME280;7392;52.078;11.650;2023-04-25T09:51:55;100281.59;;;11.14;54.97
14612;BME280;7392;52.078;11.650;2023-04-25T09:54:27;100279.00;;;11.05;53.78
14612;BME280;7392;52.078;11.650;2023-04-25T09:57:11;100280.91;;;10.95;53.75
14612;BME280;7392;52.078;11.650;2023-04-25T09:59:44;100277.34;;;10.96;54.87
14612;BME280;7392;52.078;11.650;2023-04-25T10:02:14;100278.06;;;11.14;56.12
14612;BME280;7392;52.078;11.650;2023-04-25T10:04:48;100278.44;;;11.53;56.26
14612;BME280;7392;52.078;11.650;2023-04-25T10:07:23;100277.09;;;11.85;56.27
14612;BME280;7392;52.078;11.650;2023-04-25T10:09:57;100263.59;;;12.00;55.58
14612;BME280;7392;52.078;11.650;2023-04-25T10:12:27;100284.13;;;11.92;54.42
14612;BME280;7392;52.078;11.650;2023-04-25T10:14:57;100284.41;;;11.72;53.47
14612;BME280;7392;52.078;11.650;2023-04-25T10:17:26;100283.63;;;11.62;54.05
14612;BME280;7392;52.078;11.650;2023-04-25T10:19:55;100296.28;;;11.45;53.95
14612;BME280;7392;52.078;11.650;2023-04-25T10:22:29;100305.38;;;11.23;52.84
14612;BME280;7392;52.078;11.650;2023-04-25T10:24:58;100300.19;;;11.16;53.49
14612;BME280;7392;52.078;11.650;2023-04-25T10:27:30;100310.88;;;11.07;53.48
14612;BME280;7392;52.078;11.650;2023-04-25T10:30:04;100307.47;;;10.97;53.47
14612;BME280;7392;52.078;11.650;2023-04-25T10:32:33;100308.41;;;10.91;53.20
14612;BME280;7392;52.078;11.650;2023-04-25T10:35:11;100312.88;;;10.84;54.41
14612;BME280;7392;52.078;11.650;2023-04-25T10:37:59;100324.50;;;10.76;55.73
14612;BME280;7392;52.078;11.650;2023-04-25T10:40:27;100324.63;;;10.62;57.79
14612;BME280;7392;52.078;11.650;2023-04-25T10:42:55;100323.81;;;10.54;58.19
14612;BME280;7392;52.078;11.650;2023-04-25T10:45:25;100325.63;;;10.47;58.34
14612;BME280;7392;52.078;11.650;2023-04-25T10:47:54;100322.19;;;10.37;56.45
14612;BME280;7392;52.078;11.650;2023-04-25T10:50:22;100319.56;;;10.28;56.37
14612;BME280;7392;52.078;11.650;2023-04-25T10:53:14;100321.34;;;10.29;57.20
14612;BME280;7392;52.078;11.650;2023-04-25T10:58:26;100324.00;;;10.32;56.84
14612;BME280;7392;52.078;11.650;2023-04-25T11:00:55;100324.00;;;10.34;56.66
14612;BME280;7392;52.078;11.650;2023-04-25T11:03:24;100317.75;;;10.36;56.76
14612;BME280;7392;52.078;11.650;2023-04-25T11:05:52;100318.44;;;10.61;57.81
14612;BME280;7392;52.078;11.650;2023-04-25T11:08:32;100320.78;;;10.94;58.83
14612;BME280;7392;52.078;11.650;2023-04-25T11:11:05;100319.91;;;10.93;57.03
14612;BME280;7392;52.078;11.650;2023-04-25T11:13:33;100324.41;;;10.85;55.87
14612;BME280;7392;52.078;11.650;2023-04-25T11:16:02;100324.56;;;10.70;54.86
14612;BME280;7392;52.078;11.650;2023-04-25T11:18:41;100321.16;;;10.54;52.70
14612;BME280;7392;52.078;11.650;2023-04-25T11:21:08;100325.63;;;10.48;54.05
14612;BME280;7392;52.078;11.650;2023-04-25T11:23:36;100323.00;;;10.45;54.32
14612;BME280;7392;52.078;11.650;2023-04-25T11:26:04;100332.72;;;10.46;54.33
14612;BME280;7392;52.078;11.650;2023-04-25T11:28:32;100329.16;;;10.51;53.47
14612;BME280;7392;52.078;11.650;2023-04-25T11:31:02;100335.31;;;10.56;53.49
14612;BME280;7392;52.078;11.650;2023-04-25T11:33:30;100324.59;;;10.66;53.11
14612;BME280;7392;52.078;11.650;2023-04-25T11:35:58;100325.44;;;10.70;52.00
14612;BME280;7392;52.078;11.650;2023-04-25T11:38:26;100329.03;;;10.68;52.61
14612;BME280;7392;52.078;11.650;2023-04-25T11:40:55;100340.53;;;10.63;52.58
14612;BME280;7392;52.078;11.650;2023-04-25T11:43:22;100342.31;;;10.64;53.52
14612;BME280;7392;52.078;11.650;2023-04-25T11:45:50;100345.94;;;10.57;52.23
14612;BME280;7392;52.078;11.650;2023-04-25T11:48:20;100343.22;;;10.59;53.09
14612;BME280;7392;52.078;11.650;2023-04-25T11:50:53;100348.50;;;10.65;53.16
14612;BME280;7392;52.078;11.650;2023-04-25T11:53:21;100343.16;;;10.71;52.82
14612;BME280;7392;52.078;11.650;2023-04-25T11:55:51;100353.78;;;10.68;51.51
14612;BME280;7392;52.078;11.650;2023-04-25T11:58:19;100360.00;;;10.67;53.45
14612;BME280;7392;52.078;11.650;2023-04-25T12:00:47;100360.84;;;10.71;53.79
14612;BME280;7392;52.078;11.650;2023-04-25T12:03:17;100357.31;;;10.69;53.53
14612;BME280;7392;52.078;11.650;2023-04-25T12:05:47;100359.09;;;10.68;53.00
14612;BME280;7392;52.078;11.650;2023-04-25T12:08:16;100365.28;;;10.72;53.90
14612;BME280;7392;52.078;11.650;2023-04-25T12:10:45;100354.34;;;11.02;54.89
14612;BME280;7392;52.078;11.650;2023-04-25T12:13:20;100355.69;;;11.42;54.87
14612;BME280;7392;52.078;11.650;2023-04-25T12:15:49;100354.69;;;11.52;53.68
14612;BME280;7392;52.078;11.650;2023-04-25T12:18:19;100362.59;;;11.57;53.44
14612;BME280;7392;52.078;11.650;2023-04-25T12:20:49;100354.59;;;11.60;53.91
14612;BME280;7392;52.078;11.650;2023-04-25T12:23:17;100351.09;;;11.56;54.18
14612;BME280;7392;52.078;11.650;2023-04-25T12:25:44;100353.78;;;11.53;53.76
14612;BME280;7392;52.078;11.650;2023-04-25T12:28:15;100356.47;;;11.50;52.78
14612;BME280;7392;52.078;11.650;2023-04-25T12:30:53;100355.63;;;11.50;52.92
14612;BME280;7392;52.078;11.650;2023-04-25T12:33:21;100358.31;;;11.47;51.94
14612;BME280;7392;52.078;11.650;2023-04-25T12:35:51;100361.03;;;11.40;50.95
14612;BME280;7392;52.078;11.650;2023-04-25T12:38:25;100366.47;;;11.30;49.54
14612;BME280;7392;52.078;11.650;2023-04-25T12:40:54;100363.06;;;11.15;50.22
14612;BME280;7392;52.078;11.650;2023-04-25T12:43:22;100364.03;;;11.08;50.30
14612;BME280;7392;52.078;11.650;2023-04-25T12:45:50;100377.44;;;10.97;50.09
14612;BME280;7392;52.078;11.650;2023-04-25T12:48:20;100375.72;;;10.92;50.31
14612;BME280;7392;52.078;11.650;2023-04-25T12:50:48;100367.78;;;10.87;50.55
14612;BME280;7392;52.078;11.650;2023-04-25T12:53:19;100381.06;;;10.90;51.19
14612;BME280;7392;52.078;11.650;2023-04-25T12:55:48;100371.25;;;10.98;51.86
14612;BME280;7392;52.078;11.650;2023-04-25T12:58:18;100375.59;;;11.06;52.56
14612;BME280;7392;52.078;11.650;2023-04-25T13:00:46;100371.97;;;11.11;51.88
14612;BME280;7392;52.078;11.650;2023-04-25T13:03:14;100365.78;;;11.11;51.63
14612;BME280;7392;52.078;11.650;2023-04-25T13:05:43;100369.38;;;11.05;50.80
14612;BME280;7392;52.078;11.650;2023-04-25T13:08:11;100378.22;;;11.09;52.97
14612;BME280;7392;52.078;11.650;2023-04-25T13:10:41;100379.09;;;11.09;52.62
14612;BME280;7392;52.078;11.650;2023-04-25T13:13:09;100381.78;;;11.04;52.12
14612;BME280;7392;52.078;11.650;2023-04-25T13:15:41;100380.97;;;10.98;52.10
14612;BME280;7392;52.078;11.650;2023-04-25T13:18:09;100393.41;;;10.93;51.53
14612;BME280;7392;52.078;11.650;2023-04-25T13:20:37;100397.00;;;10.87;51.67
14612;BME280;7392;52.078;11.650;2023-04-25T13:23:05;100385.56;;;10.79;51.60
14612;BME280;7392;52.078;11.650;2023-04-25T13:25:34;100390.84;;;10.82;53.07
14612;BME280;7392;52.078;11.650;2023-04-25T13:28:03;100397.03;;;10.84;52.99
14612;BME280;7392;52.078;11.650;2023-04-25T13:30:31;100396.13;;;10.88;53.57
14612;BME280;7392;52.078;11.650;2023-04-25T13:32:59;100405.72;;;11.00;53.45
14612;BME280;7392;52.078;11.650;2023-04-25T13:35:30;100392.34;;;11.12;53.57
14612;BME280;7392;52.078;11.650;2023-04-25T13:37:58;100405.41;;;11.34;53.49
14612;BME280;7392;52.078;11.650;2023-04-25T13:40:26;100397.25;;;11.49;50.71
14612;BME280;7392;52.078;11.650;2023-04-25T13:42:54;100402.34;;;11.71;51.57